createdAt,value
2022-08-21T00:00:26.608Z,99.90
2022-08-21T00:02:57.276Z,99.90
2022-08-21T00:05:28.156Z,99.90
2022-08-21T00:07:57.196Z,99.90
2022-08-21T00:10:25.855Z,99.90
2022-08-21T00:12:54.257Z,99.90
2022-08-21T00:15:28.104Z,99.90
2022-08-21T00:17:56.591Z,99.90
2022-08-21T00:20:27.992Z,99.90
2022-08-21T00:22:56.157Z,99.90
2022-08-21T00:25:26.358Z,99.90
2022-08-21T00:27:55.158Z,99.90
2022-08-21T00:30:25.253Z,99.90
2022-08-21T00:32:55.055Z,99.90
2022-08-21T00:35:25.695Z,99.90
2022-08-21T00:37:55.238Z,99.90
2022-08-21T00:40:27.145Z,99.90
2022-08-21T00:42:55.588Z,99.90
2022-08-21T00:45:25.213Z,99.90
2022-08-21T00:47:56.032Z,99.90
2022-08-21T00:50:25.420Z,99.90
2022-08-21T00:52:55.017Z,99.90
2022-08-21T00:55:24.977Z,99.90
2022-08-21T00:57:57.222Z,99.90
2022-08-21T01:00:30.013Z,99.90
2022-08-21T01:02:59.183Z,99.90
2022-08-21T01:05:27.901Z,99.90
2022-08-21T01:07:58.942Z,99.90
2022-08-21T01:10:27.492Z,99.90
2022-08-21T01:12:58.294Z,99.90
2022-08-21T01:15:31.429Z,99.90
2022-08-21T01:17:59.508Z,99.90
2022-08-21T01:20:32.315Z,99.90
2022-08-21T01:23:02.815Z,99.90
2022-08-21T01:25:31.269Z,99.90
2022-08-21T01:28:01.314Z,99.90
2022-08-21T01:30:30.494Z,99.90
2022-08-21T01:32:59.053Z,99.90
2022-08-21T01:35:27.679Z,99.90
2022-08-21T01:37:55.731Z,99.90
2022-08-21T01:40:25.216Z,99.90
2022-08-21T01:42:54.348Z,99.90
2022-08-21T01:45:22.693Z,99.90
2022-08-21T01:47:50.756Z,99.90
2022-08-21T01:50:21.412Z,99.90
2022-08-21T01:52:50.025Z,99.90
2022-08-21T01:55:19.357Z,99.90
2022-08-21T01:57:49.447Z,99.90
2022-08-21T02:00:20.288Z,99.90
2022-08-21T02:02:48.349Z,99.90
2022-08-21T02:05:16.509Z,99.90
2022-08-21T02:07:47.678Z,99.90
2022-08-21T02:10:18.710Z,99.90
2022-08-21T02:12:48.269Z,99.90
2022-08-21T02:15:16.353Z,99.90
2022-08-21T02:17:49.099Z,99.90
2022-08-21T02:20:20.127Z,99.90
2022-08-21T02:22:48.185Z,99.90
2022-08-21T02:25:16.434Z,99.90
2022-08-21T02:27:47.692Z,99.90
2022-08-21T02:30:19.545Z,99.90
2022-08-21T02:32:47.744Z,99.90
2022-08-21T02:35:16.270Z,99.90
2022-08-21T02:37:49.874Z,99.90
2022-08-21T02:40:20.327Z,99.90
2022-08-21T02:42:48.391Z,99.90
2022-08-21T02:45:19.293Z,99.90
2022-08-21T02:47:50.490Z,99.90
2022-08-21T02:50:23.133Z,99.90
2022-08-21T02:52:55.086Z,99.90
2022-08-21T02:55:24.595Z,99.90
2022-08-21T02:57:52.623Z,99.90
2022-08-21T03:00:24.466Z,99.90
2022-08-21T03:02:54.445Z,99.90
2022-08-21T03:05:22.640Z,99.90
2022-08-21T03:07:51.056Z,99.90
2022-08-21T03:10:20.663Z,99.90
2022-08-21T03:12:49.089Z,99.90
2022-08-21T03:15:19.240Z,99.90
2022-08-21T03:17:50.092Z,99.90
2022-08-21T03:20:24.769Z,99.90
2022-08-21T03:22:53.509Z,99.90
2022-08-21T03:25:25.098Z,99.90
2022-08-21T03:28:08.398Z,99.90
2022-08-21T03:30:39.917Z,99.90
2022-08-21T03:33:09.341Z,99.90
2022-08-21T03:35:41.436Z,99.90
2022-08-21T03:38:09.589Z,99.90
2022-08-21T03:40:37.883Z,99.90
2022-08-21T03:43:06.023Z,99.90
2022-08-21T03:45:34.032Z,99.90
2022-08-21T03:48:04.476Z,99.90
2022-08-21T03:50:40.914Z,99.90
2022-08-21T03:53:17.380Z,99.90
2022-08-21T03:55:47.523Z,99.90
2022-08-21T03:58:17.539Z,99.90
2022-08-21T04:00:46.595Z,99.90
2022-08-21T04:03:14.783Z,99.90
2022-08-21T04:05:46.517Z,99.90
2022-08-21T04:08:15.667Z,99.90
2022-08-21T04:10:45.508Z,99.90
2022-08-21T04:13:13.687Z,99.90
2022-08-21T04:15:42.149Z,99.90
2022-08-21T04:18:10.888Z,99.90
2022-08-21T04:20:39.308Z,99.90
2022-08-21T04:23:09.049Z,99.90
2022-08-21T04:25:37.449Z,99.90
2022-08-21T04:28:05.785Z,99.90
2022-08-21T04:30:36.187Z,99.90
2022-08-21T04:33:04.703Z,99.90
2022-08-21T04:35:33.756Z,99.90
2022-08-21T04:38:01.737Z,99.90
2022-08-21T04:40:31.176Z,99.90
2022-08-21T04:43:02.744Z,99.90
2022-08-21T04:45:34.982Z,99.90
2022-08-21T04:48:07.825Z,99.90
2022-08-21T04:50:42.475Z,99.90
2022-08-21T04:53:15.633Z,99.90
2022-08-21T04:55:46.547Z,99.90
2022-08-21T04:58:17.558Z,99.90
2022-08-21T05:00:46.954Z,99.90
2022-08-21T05:03:18.531Z,99.90
2022-08-21T05:05:46.795Z,99.90
2022-08-21T05:08:19.161Z,99.90
2022-08-21T05:10:48.794Z,99.90
2022-08-21T05:13:17.157Z,99.90
2022-08-21T05:15:45.293Z,99.90
2022-08-21T05:18:13.334Z,99.90
2022-08-21T05:20:42.051Z,99.90
2022-08-21T05:23:11.500Z,99.90
2022-08-21T05:25:39.871Z,99.90
2022-08-21T05:28:09.667Z,99.90
2022-08-21T05:30:38.365Z,99.90
2022-08-21T05:33:08.657Z,99.90
2022-08-21T05:35:36.956Z,99.90
2022-08-21T05:38:06.121Z,99.90
2022-08-21T05:40:45.170Z,99.90
2022-08-21T05:43:14.889Z,99.90
2022-08-21T05:45:44.299Z,99.90
2022-08-21T05:48:14.896Z,99.90
2022-08-21T05:50:43.491Z,99.90
2022-08-21T05:53:11.734Z,99.90
2022-08-21T05:55:45.171Z,99.90
2022-08-21T05:58:16.307Z,99.90
2022-08-21T06:00:45.462Z,99.90
2022-08-21T06:03:14.388Z,99.90
2022-08-21T06:05:42.485Z,99.90
2022-08-21T06:08:11.904Z,99.90
2022-08-21T06:10:40.819Z,99.90
2022-08-21T06:13:09.234Z,99.90
2022-08-21T06:15:38.637Z,99.90
2022-08-21T06:18:07.526Z,99.90
2022-08-21T06:20:35.799Z,99.90
2022-08-21T06:23:04.246Z,99.90
2022-08-21T06:25:32.544Z,99.90
2022-08-21T06:28:05.110Z,99.90
2022-08-21T06:30:34.195Z,99.90
2022-08-21T06:33:03.954Z,99.90
2022-08-21T06:35:32.219Z,99.90
2022-08-21T06:38:00.356Z,99.90
2022-08-21T06:40:30.151Z,99.90
2022-08-21T06:42:59.372Z,99.90
2022-08-21T06:45:32.203Z,99.90
2022-08-21T06:48:00.968Z,99.90
2022-08-21T06:50:31.244Z,99.90
2022-08-21T06:53:05.559Z,99.90
2022-08-21T06:55:33.975Z,99.90
2022-08-21T06:58:02.389Z,99.90
2022-08-21T07:00:30.948Z,99.90
2022-08-21T07:02:59.379Z,99.90
2022-08-21T07:05:28.261Z,99.90
2022-08-21T07:07:58.237Z,99.90
2022-08-21T07:10:26.675Z,99.90
2022-08-21T07:13:00.796Z,99.90
2022-08-21T07:15:30.769Z,99.90
2022-08-21T07:17:59.383Z,99.90
2022-08-21T07:20:28.566Z,99.90
2022-08-21T07:22:58.534Z,99.90
2022-08-21T07:25:27.215Z,99.90
2022-08-21T07:27:55.843Z,99.90
2022-08-21T07:30:24.857Z,99.90
2022-08-21T07:32:53.090Z,99.90
2022-08-21T07:35:23.104Z,99.90
2022-08-21T07:37:51.150Z,99.90
2022-08-21T07:40:20.815Z,99.90
2022-08-21T07:42:52.653Z,99.90
2022-08-21T07:45:22.724Z,99.90
2022-08-21T07:47:54.222Z,99.90
2022-08-21T07:50:25.650Z,99.90
2022-08-21T07:52:54.780Z,99.90
2022-08-21T07:55:24.646Z,99.90
2022-08-21T07:57:52.748Z,99.90
2022-08-21T08:00:23.809Z,99.90
2022-08-21T08:02:54.153Z,99.90
2022-08-21T08:05:32.774Z,99.90
2022-08-21T08:08:01.417Z,99.90
2022-08-21T08:10:30.834Z,99.90
2022-08-21T08:12:59.154Z,99.90
2022-08-21T08:15:29.027Z,99.90
2022-08-21T08:17:58.149Z,99.90
2022-08-21T08:20:28.324Z,99.90
2022-08-21T08:22:57.236Z,99.90
2022-08-21T08:25:27.078Z,99.90
2022-08-21T08:27:56.467Z,99.90
2022-08-21T08:30:25.965Z,99.90
2022-08-21T08:32:55.207Z,99.90
2022-08-21T08:35:24.358Z,99.80
2022-08-21T08:37:53.563Z,99.20
2022-08-21T08:40:43.195Z,97.30
2022-08-21T08:43:14.716Z,98.30
2022-08-21T08:45:48.786Z,96.00
2022-08-21T08:48:30.590Z,96.70
2022-08-21T08:51:02.518Z,96.20
2022-08-21T08:53:34.215Z,96.50
2022-08-21T08:56:04.642Z,95.70
2022-08-21T08:58:38.715Z,95.60
2022-08-21T09:01:14.221Z,93.80
2022-08-21T09:03:42.529Z,94.40
2022-08-21T09:06:20.459Z,95.00
2022-08-21T09:08:56.685Z,93.00
2022-08-21T09:11:30.731Z,92.90
2022-08-21T09:14:12.320Z,93.30
2022-08-21T09:16:49.349Z,93.20
2022-08-21T09:19:35.877Z,93.00
2022-08-21T09:22:11.416Z,94.10
2022-08-21T09:24:51.987Z,91.70
2022-08-21T09:27:23.126Z,91.40
2022-08-21T09:29:55.330Z,92.40
2022-08-21T09:32:37.107Z,91.20
2022-08-21T09:35:13.233Z,90.20
2022-08-21T09:37:53.590Z,90.20
2022-08-21T09:40:33.383Z,86.60
2022-08-21T09:43:05.570Z,90.00
2022-08-21T09:45:35.909Z,88.90
2022-08-21T09:48:16.074Z,87.00
2022-08-21T09:50:45.014Z,85.80
2022-08-21T09:53:25.343Z,88.20
2022-08-21T09:56:13.959Z,90.40
2022-08-21T09:58:46.089Z,89.40
2022-08-21T10:01:19.211Z,84.20
2022-08-21T10:03:50.706Z,83.40
2022-08-21T10:06:27.558Z,78.90
2022-08-21T10:09:07.104Z,81.40
2022-08-21T10:11:36.333Z,81.90
2022-08-21T10:14:13.501Z,82.10
2022-08-21T10:16:55.014Z,79.40
2022-08-21T10:19:33.460Z,82.40
2022-08-21T10:22:12.922Z,84.90
2022-08-21T10:24:51.197Z,79.90
2022-08-21T10:27:29.399Z,80.90
2022-08-21T10:30:02.349Z,79.30
2022-08-21T10:33:00.393Z,80.40
2022-08-21T10:35:32.941Z,78.20
2022-08-21T10:38:55.504Z,78.80
2022-08-21T10:41:39.389Z,81.70
2022-08-21T10:44:23.026Z,81.90
2022-08-21T10:46:56.565Z,79.70
2022-08-21T10:49:39.264Z,80.60
2022-08-21T10:52:30.111Z,78.70
2022-08-21T10:55:02.220Z,79.40
2022-08-21T10:57:45.089Z,82.40
2022-08-21T11:00:16.870Z,76.50
2022-08-21T11:02:51.278Z,76.00
2022-08-21T11:05:26.413Z,77.10
2022-08-21T11:08:00.991Z,76.60
2022-08-21T11:10:36.278Z,74.40
2022-08-21T11:13:17.169Z,75.40
2022-08-21T11:15:52.624Z,75.50
2022-08-21T11:18:26.859Z,75.10
2022-08-21T11:21:06.683Z,73.40
2022-08-21T11:23:43.274Z,73.00
2022-08-21T11:26:16.778Z,74.30
2022-08-21T11:28:53.151Z,70.80
2022-08-21T11:31:40.197Z,70.90
2022-08-21T11:34:22.539Z,72.40
2022-08-21T11:36:59.510Z,69.60
2022-08-21T11:39:38.878Z,70.60
2022-08-21T11:42:18.318Z,72.70
2022-08-21T11:44:53.214Z,73.20
2022-08-21T11:47:28.201Z,74.00
2022-08-21T11:50:32.548Z,73.90
2022-08-21T11:53:06.867Z,71.30
2022-08-21T11:55:38.794Z,73.80
2022-08-21T11:58:12.248Z,72.00
2022-08-21T12:00:44.803Z,71.10
2022-08-21T12:03:16.658Z,71.90
2022-08-21T12:05:53.815Z,68.70
2022-08-21T12:08:33.104Z,72.80
2022-08-21T12:11:06.602Z,71.70
2022-08-21T12:13:42.058Z,69.60
2022-08-21T12:16:13.614Z,74.90
2022-08-21T12:18:42.406Z,72.70
2022-08-21T12:21:25.482Z,72.90
2022-08-21T12:24:17.180Z,68.10
2022-08-21T12:26:53.053Z,70.80
2022-08-21T12:29:27.511Z,71.90
2022-08-21T12:31:59.513Z,69.80
2022-08-21T12:34:36.755Z,65.50
2022-08-21T12:37:13.240Z,68.20
2022-08-21T12:39:48.377Z,70.40
2022-08-21T12:42:20.402Z,69.90
2022-08-21T12:44:52.803Z,71.70
2022-08-21T12:47:30.578Z,71.70
2022-08-21T12:50:04.330Z,72.80
2022-08-21T12:52:39.555Z,69.00
2022-08-21T12:55:13.823Z,68.80
2022-08-21T12:57:43.790Z,70.90
2022-08-21T13:00:15.712Z,72.20
2022-08-21T13:02:49.224Z,68.50
2022-08-21T13:05:23.727Z,69.80
2022-08-21T13:07:52.407Z,71.90
2022-08-21T13:10:26.302Z,71.70
2022-08-21T13:13:00.204Z,72.00
2022-08-21T13:15:33.286Z,68.00
2022-08-21T13:18:03.846Z,68.70
2022-08-21T13:20:34.163Z,70.50
2022-08-21T13:23:04.339Z,70.90
2022-08-21T13:25:39.026Z,70.00
2022-08-21T13:28:10.030Z,67.80
2022-08-21T13:30:43.879Z,66.70
2022-08-21T13:33:14.535Z,66.50
2022-08-21T13:35:50.580Z,68.40
2022-08-21T13:38:19.333Z,65.90
2022-08-21T13:40:52.478Z,66.40
2022-08-21T13:43:24.344Z,67.90
2022-08-21T13:45:54.643Z,67.30
2022-08-21T13:48:27.168Z,67.70
2022-08-21T13:50:56.149Z,68.40
2022-08-21T13:53:30.284Z,67.60
2022-08-21T13:56:01.488Z,69.00
2022-08-21T13:58:31.779Z,69.20
2022-08-21T14:01:01.500Z,68.80
2022-08-21T14:03:37.404Z,68.50
2022-08-21T14:06:13.641Z,67.70
2022-08-21T14:08:43.986Z,66.20
2022-08-21T14:11:15.471Z,66.20
2022-08-21T14:13:47.688Z,66.40
2022-08-21T14:16:20.450Z,65.80
2022-08-21T14:18:51.344Z,68.60
2022-08-21T14:21:31.668Z,68.10
2022-08-21T14:24:06.173Z,69.00
2022-08-21T14:26:38.311Z,64.10
2022-08-21T14:29:10.823Z,64.80
2022-08-21T14:31:41.804Z,64.60
2022-08-21T14:34:19.307Z,63.30
2022-08-21T14:36:49.232Z,61.50
2022-08-21T14:39:17.601Z,60.30
2022-08-21T14:41:49.609Z,62.30
2022-08-21T14:44:19.098Z,62.90
2022-08-21T14:46:56.143Z,61.80
2022-08-21T14:49:28.809Z,62.10
2022-08-21T14:51:59.083Z,59.00
2022-08-21T14:54:31.625Z,57.70
2022-08-21T14:57:04.212Z,58.50
2022-08-21T14:59:34.102Z,59.20
2022-08-21T15:02:02.616Z,61.40
2022-08-21T15:04:30.722Z,62.20
2022-08-21T15:06:58.735Z,63.70
2022-08-21T15:09:26.765Z,66.50
2022-08-21T15:11:57.420Z,64.30
2022-08-21T15:14:29.386Z,61.90
2022-08-21T15:16:57.526Z,60.50
2022-08-21T15:19:26.005Z,65.00
2022-08-21T15:21:54.211Z,62.70
2022-08-21T15:24:22.207Z,63.80
2022-08-21T15:26:51.003Z,62.60
2022-08-21T15:29:22.738Z,65.80
2022-08-21T15:31:57.626Z,66.40
2022-08-21T15:34:27.258Z,65.50
2022-08-21T15:36:57.138Z,66.60
2022-08-21T15:39:31.181Z,64.20
2022-08-21T15:42:03.339Z,64.90
2022-08-21T15:44:40.077Z,66.60
2022-08-21T15:47:12.008Z,65.20
2022-08-21T15:49:40.031Z,64.70
2022-08-21T15:52:08.101Z,65.80
2022-08-21T15:54:36.166Z,67.00
2022-08-21T15:57:04.346Z,67.80
2022-08-21T16:02:17.045Z,68.60
2022-08-21T16:04:45.128Z,68.60
2022-08-21T16:07:13.429Z,69.50
2022-08-21T16:09:41.725Z,69.70
2022-08-21T16:12:11.774Z,68.40
2022-08-21T16:14:39.999Z,67.60
2022-08-21T16:17:08.629Z,68.00
2022-08-21T16:19:39.643Z,69.80
2022-08-21T16:22:07.734Z,69.60
2022-08-21T16:24:36.526Z,69.80
2022-08-21T16:27:08.249Z,69.60
2022-08-21T16:29:38.293Z,67.50
2022-08-21T16:32:09.096Z,67.20
2022-08-21T16:34:41.292Z,67.90
2022-08-21T16:37:09.372Z,68.80
2022-08-21T16:39:37.739Z,68.70
2022-08-21T16:42:06.956Z,69.80
2022-08-21T16:44:35.528Z,69.30
2022-08-21T16:47:06.124Z,68.80
2022-08-21T16:49:34.128Z,68.50
2022-08-21T16:52:03.924Z,69.90
2022-08-21T16:54:32.022Z,68.50
2022-08-21T16:57:00.620Z,69.10
2022-08-21T16:59:28.771Z,68.30
2022-08-21T17:04:34.992Z,70.80
2022-08-21T17:07:04.380Z,71.40
2022-08-21T17:09:32.472Z,72.00
2022-08-21T17:12:00.496Z,72.20
2022-08-21T17:14:28.519Z,72.00
2022-08-21T17:16:57.998Z,72.00
2022-08-21T17:19:25.949Z,72.10
2022-08-21T17:21:54.108Z,72.70
2022-08-21T17:24:23.602Z,72.60
2022-08-21T17:26:53.697Z,72.20
2022-08-21T17:29:25.938Z,73.70
2022-08-21T17:31:54.134Z,73.90
2022-08-21T17:34:22.479Z,73.70
2022-08-21T17:36:50.559Z,73.30
2022-08-21T17:39:22.410Z,73.80
2022-08-21T17:41:58.072Z,74.60
2022-08-21T17:44:26.791Z,75.00
2022-08-21T17:46:55.206Z,77.10
2022-08-21T17:49:23.370Z,76.20
2022-08-21T17:51:51.675Z,76.10
2022-08-21T17:54:19.714Z,76.00
2022-08-21T17:56:48.149Z,76.80
2022-08-21T17:59:17.552Z,76.90
2022-08-21T18:01:47.311Z,77.40
2022-08-21T18:04:16.137Z,78.30
2022-08-21T18:06:45.033Z,78.00
2022-08-21T18:09:13.869Z,78.70
2022-08-21T18:11:44.086Z,80.60
2022-08-21T18:14:12.642Z,82.00
2022-08-21T18:16:42.967Z,83.70
2022-08-21T18:19:16.006Z,80.00
2022-08-21T18:21:44.355Z,80.80
2022-08-21T18:24:12.338Z,79.40
2022-08-21T18:26:41.571Z,80.00
2022-08-21T18:29:12.948Z,80.90
2022-08-21T18:31:46.030Z,83.10
2022-08-21T18:34:23.469Z,85.40
2022-08-21T18:36:53.030Z,83.00
2022-08-21T18:39:38.092Z,83.40
2022-08-21T18:42:11.106Z,84.10
2022-08-21T18:44:40.267Z,85.80
2022-08-21T18:47:14.413Z,84.10
2022-08-21T18:49:42.822Z,84.70
2022-08-21T18:52:17.748Z,84.60
2022-08-21T18:54:59.062Z,84.50
2022-08-21T18:57:34.607Z,85.00
2022-08-21T19:00:08.390Z,85.20
2022-08-21T19:02:37.934Z,85.80
2022-08-21T19:05:13.644Z,87.10
2022-08-21T19:07:42.268Z,86.90
2022-08-21T19:10:29.269Z,87.50
2022-08-21T19:15:52.782Z,89.80
2022-08-21T19:18:28.411Z,90.60
2022-08-21T19:20:57.685Z,90.60
2022-08-21T19:23:29.359Z,90.80
2022-08-21T19:26:18.163Z,91.30
2022-08-21T19:28:50.225Z,90.90
2022-08-21T19:31:24.012Z,91.70
2022-08-21T19:34:01.496Z,91.20
2022-08-21T19:36:30.212Z,91.40
2022-08-21T19:38:58.346Z,91.60
2022-08-21T19:41:29.060Z,92.20
2022-08-21T19:44:00.877Z,92.30
2022-08-21T19:46:33.440Z,92.70
2022-08-21T19:49:08.537Z,92.60
2022-08-21T19:51:38.701Z,92.30
2022-08-21T19:54:06.900Z,92.80
2022-08-21T19:56:39.438Z,93.10
2022-08-21T19:59:07.732Z,92.70
2022-08-21T20:01:39.963Z,92.70
2022-08-21T20:04:10.716Z,92.60
2022-08-21T20:06:46.465Z,93.30
2022-08-21T20:09:16.200Z,93.10
2022-08-21T20:11:47.457Z,93.20
2022-08-21T20:14:18.024Z,93.80
2022-08-21T20:16:48.532Z,93.90
2022-08-21T20:19:22.392Z,94.20
2022-08-21T20:21:50.824Z,94.50
2022-08-21T20:24:18.949Z,94.80
2022-08-21T20:29:39.413Z,95.10
2022-08-21T20:34:59.056Z,95.10
2022-08-21T20:37:37.027Z,95.10
2022-08-21T20:40:11.174Z,95.20
2022-08-21T20:42:40.157Z,94.80
2022-08-21T20:45:09.965Z,95.40
2022-08-21T20:47:38.867Z,96.00
2022-08-21T20:50:14.133Z,96.70
2022-08-21T20:52:43.054Z,97.20
2022-08-21T20:55:14.442Z,97.80
2022-08-21T20:57:51.167Z,98.70
2022-08-21T21:00:22.374Z,99.10
2022-08-21T21:02:54.872Z,99.30
2022-08-21T21:05:29.069Z,99.90
2022-08-21T21:08:03.470Z,99.90
2022-08-21T21:10:39.209Z,99.90
2022-08-21T21:13:18.170Z,99.80
2022-08-21T21:15:48.772Z,99.90
2022-08-21T21:18:23.653Z,99.90
2022-08-21T21:21:01.606Z,99.90
2022-08-21T21:23:36.749Z,99.90
2022-08-21T21:26:14.387Z,99.90
2022-08-21T21:28:49.519Z,99.90
2022-08-21T21:31:19.231Z,99.90
2022-08-21T21:33:48.219Z,99.90
2022-08-21T21:36:29.628Z,99.90
2022-08-21T21:39:09.389Z,99.90
2022-08-21T21:41:44.861Z,99.90
2022-08-21T21:44:31.918Z,99.90
2022-08-21T21:47:07.819Z,99.90
2022-08-21T21:49:50.138Z,99.90
2022-08-21T21:52:35.407Z,99.90
2022-08-21T21:55:23.690Z,99.90
2022-08-21T21:58:28.927Z,99.90
2022-08-21T22:01:04.119Z,99.90
2022-08-21T22:03:39.675Z,99.90
2022-08-21T22:06:13.413Z,99.90
2022-08-21T22:08:52.617Z,99.90
2022-08-21T22:11:29.600Z,99.90
2022-08-21T22:14:06.057Z,99.90
2022-08-21T22:16:37.699Z,99.90
2022-08-21T22:19:17.160Z,99.90
2022-08-21T22:21:51.841Z,99.90
2022-08-21T22:24:27.682Z,99.90
2022-08-21T22:27:02.863Z,99.90
2022-08-21T22:29:45.157Z,99.90
2022-08-21T22:32:22.275Z,99.90
2022-08-21T22:35:02.484Z,99.90
2022-08-21T22:37:36.496Z,99.90
2022-08-21T22:40:07.741Z,99.90
2022-08-21T22:42:35.866Z,99.90
2022-08-21T22:45:12.208Z,99.90
2022-08-21T22:47:43.908Z,99.90
2022-08-21T22:50:21.506Z,99.90
2022-08-21T22:52:57.050Z,99.90
2022-08-21T22:55:32.314Z,99.90
2022-08-21T22:58:08.769Z,99.90
2022-08-21T23:00:51.981Z,99.90
2022-08-21T23:03:31.771Z,99.90
2022-08-21T23:06:12.713Z,99.90
2022-08-21T23:08:44.150Z,99.90
2022-08-21T23:14:14.211Z,99.90
2022-08-21T23:16:59.295Z,99.90
2022-08-21T23:19:39.172Z,99.90
2022-08-21T23:22:28.374Z,99.90
2022-08-21T23:25:05.841Z,99.90
2022-08-21T23:28:05.638Z,99.90
2022-08-21T23:30:43.972Z,99.90
2022-08-21T23:33:30.265Z,99.90
2022-08-21T23:36:25.797Z,99.90
2022-08-21T23:39:08.265Z,99.90
2022-08-21T23:41:43.676Z,99.90
2022-08-21T23:44:28.373Z,99.90
2022-08-21T23:47:10.045Z,99.90
2022-08-21T23:49:48.701Z,99.90
2022-08-21T23:52:35.493Z,99.90
2022-08-21T23:55:24.751Z,99.90
2022-08-21T23:58:05.478Z,99.90
